Heijin — 3EUE7 — position and weather

sailwx.info

Track history (hours):
 
Tides and Currents Weather Stations Pressure Air Temp Water Temp Dewpoint Dewpoint Depression Visibility Wind Speed Wind Dir Waves Ship Positions

Heijin

Last reported at 2018-Apr-13 13:50 UTC. Time now 2018-Apr-24 10:51 UTC.
Position N 49°16' W 126°43'.
Warning: this ship's position is 10 days out of date.

Length 180 m; beam 32.2 m.

Type: Cargo ship. MMSI: 353788000.

Date/timePositionNaut miles runAvg speedWind from/ knotsBaromVisibWave heightAir tempDewpointWater temp
2018-Apr-13 13:50N 49°16' W 126°43'514.8
2018-Apr-13 13:30N 49°14' W 126°37'815.4
2018-Apr-13 12:59N 49°09' W 126°27'714.7
2018-Apr-13 12:30N 49°05' W 126°18'714.9
2018-Apr-13 12:00N 49°01' W 126°09'815.2
2018-Apr-13 11:30N 48°56' W 125°60'714.2
2018-Apr-13 11:00N 48°52' W 125°51'714.3
2018-Apr-13 10:30N 48°48' W 125°42'714.2
2018-Apr-13 10:00N 48°45' W 125°33'714.5
2018-Apr-13 09:30N 48°41' W 125°23'714.7
2018-Apr-13 09:00N 48°37' W 125°13'714.8
2018-Apr-13 08:30N 48°34' W 125°04'714.4
2018-Apr-13 08:00N 48°32' W 124°53'714.0
2018-Apr-13 07:30N 48°31' W 124°43'713.9
2018-Apr-13 07:00N 48°28' W 124°33'714.5
2018-Apr-13 06:30N 48°25' W 124°23'815.6
2018-Apr-13 06:00N 48°22' W 124°12'816.4
2018-Apr-13 05:30N 48°19' W 124°01'2315.0
2018-Apr-13 03:59N 48°20' W 123°27'510.5
2018-Apr-13 03:30N 48°23' W 123°21'612.0
2018-Apr-13 03:01N 48°25' W 123°13'713.5
2018-Apr-13 02:31N 48°32' W 123°13'714.9
2018-Apr-13 02:00N 48°39' W 123°15'816.0
2018-Apr-13 01:30N 48°45' W 123°07'612.9
2018-Apr-13 01:00N 48°51' W 123°04'917.5
2018-Apr-13 00:30N 48°58' W 123°13'714.4
2018-Apr-12 23:59N 49°03' W 123°21'5 9.6
2018-Apr-12 23:31N 49°07' W 123°17'510.6
2018-Apr-12 23:00N 49°06' W 123°08'510.3
2018-Apr-12 22:30N 49°09' W 123°02'4 8.9
2018-Apr-12 22:01N 49°11' W 122°55'0 0.7
2018-Apr-12 21:28N 49°11' W 122°55'0 0.0
2018-Apr-12 20:58N 49°11' W 122°55'0 0.0
2018-Apr-12 20:28N 49°11' W 122°55'0 0.0
2018-Apr-12 19:58N 49°11' W 122°55'0 0.0
2018-Apr-12 19:28N 49°11' W 122°55'0 0.0
2018-Apr-12 18:55N 49°11' W 122°55'0 0.0
2018-Apr-12 18:28N 49°11' W 122°55'0 0.0
2018-Apr-12 17:58N 49°11' W 122°55'0 0.0
2018-Apr-12 17:28N 49°11' W 122°55'0 0.0
2018-Apr-12 16:58N 49°11' W 122°55'0 0.0
2018-Apr-12 16:25N 49°11' W 122°55'0 0.0
2018-Apr-12 15:58N 49°11' W 122°55'0 0.0
2018-Apr-12 15:28N 49°11' W 122°55'0 0.0
2018-Apr-12 14:58N 49°11' W 122°55'0 0.0
2018-Apr-12 14:28N 49°11' W 122°55'0 0.0
2018-Apr-12 13:58N 49°11' W 122°55'0 0.0
2018-Apr-12 13:28N 49°11' W 122°55'0 0.0
2018-Apr-12 12:58N 49°11' W 122°55'0 0.0
2018-Apr-12 12:28N 49°11' W 122°55'0 0.0
2018-Apr-12 11:58N 49°11' W 122°55'0 0.0
2018-Apr-12 11:28N 49°11' W 122°55'0 0.0
2018-Apr-12 10:58N 49°11' W 122°55'0 0.0
2018-Apr-12 10:25N 49°11' W 122°55'0 0.0
2018-Apr-12 09:58N 49°11' W 122°55'0 0.0
2018-Apr-12 09:28N 49°11' W 122°55'0 0.0
2018-Apr-12 09:00N 49°11' W 122°55'1 2.5
2018-Apr-12 08:30N 49°10' W 122°56'510.4
2018-Apr-12 08:00N 49°08' W 123°03'510.1
2018-Apr-12 07:30N 49°07' W 123°11'510.0
2018-Apr-12 07:00N 49°06' W 123°18'3 6.7
2018-Apr-12 06:30N 49°03' W 123°18'511.0
2018-Apr-12 06:01N 48°59' W 123°12'816.4
2018-Apr-12 05:31N 48°53' W 123°04'714.2
2018-Apr-12 05:01N 48°46' W 123°04'916.7
2018-Apr-12 04:29N 48°41' W 123°15'816.5
2018-Apr-12 04:00N 48°34' W 123°12'815.9
2018-Apr-12 03:31N 48°26' W 123°10'714.0
2018-Apr-12 03:00N 48°22' W 123°19'6 9.9
2018-Apr-12 02:25N 48°18' W 123°25'20 8.5
2018-Apr-12 00:01N 48°14' W 123°55'015.2
2018-Apr-12 00:00N 48°14' W 123°55'713.0
2018-Apr-11 23:30N 48°16' W 124°05'613.1
2018-Apr-11 23:00N 48°19' W 124°13'713.2
2018-Apr-11 22:31N 48°22' W 124°22'715.0
2018-Apr-11 22:01N 48°25' W 124°32'917.4
2018-Apr-11 21:31N 48°28' W 124°44'916.9
2018-Apr-11 20:58N 48°28' W 124°58'816.2
2018-Apr-11 20:30N 48°22' W 125°04'816.8
2018-Apr-11 20:01N 48°14' W 125°07'816.0
2018-Apr-11 19:29N 48°06' W 125°03'6315.1
2018-Apr-11 15:18N 47°04' W 124°42'413.4
2018-Apr-11 15:00N 47°00' W 124°41'713.3
2018-Apr-11 14:30N 46°54' W 124°40'713.2
2018-Apr-11 14:01N 46°47' W 124°37'713.2
2018-Apr-11 13:30N 46°41' W 124°36'713.0
2018-Apr-11 13:00N 46°34' W 124°33'611.6
2018-Apr-11 12:30N 46°30' W 124°28'611.6
2018-Apr-11 12:00N 46°25' W 124°24'611.5
2018-Apr-11 11:30N 46°20' W 124°19'611.5
2018-Apr-11 11:00N 46°15' W 124°14'510.4
2018-Apr-11 10:30N 46°12' W 124°09'3 5.1
2018-Apr-11 10:00N 46°14' W 124°07'612.0
2018-Apr-11 09:30N 46°14' W 123°58'612.4
2018-Apr-11 09:00N 46°12' W 123°50'611.8
2018-Apr-11 08:31N 46°15' W 123°42'714.7
2018-Apr-11 08:00N 46°16' W 123°32'611.1
2018-Apr-11 07:30N 46°12' W 123°26'510.4
2018-Apr-11 07:00N 46°09' W 123°20'714.4
2018-Apr-11 06:30N 46°11' W 123°10'714.5
2018-Apr-11 06:00N 46°08' W 123°01'611.2
2018-Apr-11 05:31N 46°05' W 122°54'510.8
2018-Apr-11 05:00N 46°00' W 122°51'612.5
2018-Apr-11 04:30N 45°54' W 122°48'713.8
2018-Apr-11 04:01N 45°47' W 122°47'714.3
2018-Apr-11 03:30N 45°40' W 122°46'4 8.2
2018-Apr-11 03:00N 45°36' W 122°47'0 0.8
2018-Apr-11 02:30N 45°36' W 122°47'0 0.0
2018-Apr-11 02:00N 45°36' W 122°47'0 0.0
2018-Apr-11 01:24N 45°36' W 122°47'0 0.0
2018-Apr-11 00:45N 45°36' W 122°47'0 0.0
2018-Apr-11 00:30N 45°36' W 122°47'0 0.0
2018-Apr-11 00:00N 45°36' W 122°47'0 0.0
2018-Apr-10 23:30N 45°36' W 122°47'0 0.0
2018-Apr-10 23:00N 45°36' W 122°47'0 0.0
2018-Apr-10 22:27N 45°36' W 122°47'0 0.0
2018-Apr-10 22:00N 45°36' W 122°47'0 0.0
2018-Apr-10 21:27N 45°36' W 122°47'0 0.0
2018-Apr-10 21:00N 45°36' W 122°47'0 0.0
2018-Apr-10 20:30N 45°36' W 122°47'0 0.0
2018-Apr-10 20:00N 45°36' W 122°47'0 0.0
2018-Apr-10 18:54N 45°36' W 122°47'0 0.0
2018-Apr-10 18:03N 45°36' W 122°47'0 0.0
2018-Apr-10 17:54N 45°36' W 122°47'0 0.0
2018-Apr-10 17:24N 45°36' W 122°47'0 0.0
2018-Apr-10 17:00N 45°36' W 122°47'0 0.0
2018-Apr-10 16:24N 45°36' W 122°47'0 0.0
2018-Apr-10 16:00N 45°36' W 122°47'0 0.0
2018-Apr-10 15:30N 45°36' W 122°47'0 0.0
2018-Apr-10 14:54N 45°36' W 122°47'0 0.0
2018-Apr-10 14:30N 45°36' W 122°47'1 2.4
2018-Apr-10 14:01N 45°37' W 122°47'3 6.5
2018-Apr-10 13:31N 45°40' W 122°46'510.2
2018-Apr-10 13:00N 45°45' W 122°46'510.4
2018-Apr-10 12:30N 45°50' W 122°47'610.3
2018-Apr-10 11:58N 45°56' W 122°48'510.2
2018-Apr-10 11:30N 46°00' W 122°51'5 9.2
2018-Apr-10 11:00N 46°04' W 122°53'5 9.3
2018-Apr-10 10:31N 46°07' W 122°59'711.1
2018-Apr-10 09:55N 46°11' W 123°07'410.6
2018-Apr-10 09:30N 46°10' W 123°13'611.1
2018-Apr-10 09:01N 46°09' W 123°20'5 9.7
2018-Apr-10 08:30N 46°12' W 123°26'5 9.9
2018-Apr-10 08:00N 46°16' W 123°29'510.2
2018-Apr-10 07:31N 46°15' W 123°36'510.0
2018-Apr-10 07:00N 46°14' W 123°43'5 9.3
2018-Apr-10 06:31N 46°12' W 123°49'4 8.0
2018-Apr-10 06:01N 46°11' W 123°54'510.6
2018-Apr-10 05:30N 46°15' W 124°00'5 9.8
2018-Apr-10 04:57N 46°14' W 124°08'4 9.4
2018-Apr-10 04:30N 46°13' W 124°14'3 4.4
2018-Apr-10 03:54N 46°13' W 124°17'1 3.7
2018-Apr-10 03:30N 46°14' W 124°19'2 4.0
2018-Apr-10 03:00N 46°14' W 124°22'2 4.3
2018-Apr-10 02:30N 46°16' W 124°25'510.6
2018-Apr-10 02:00N 46°19' W 124°31'611.5
2018-Apr-10 01:30N 46°21' W 124°38'611.5
2018-Apr-10 01:00N 46°24' W 124°46'611.3
2018-Apr-10 00:30N 46°26' W 124°54'612.2
2018-Apr-10 00:00N 46°28' W 125°02'612.0
2018-Apr-09 23:30N 46°31' W 125°10'611.9
2018-Apr-09 23:00N 46°33' W 125°18'612.0
2018-Apr-09 22:30N 46°35' W 125°25'1019.7
2018-Apr-09 22:00N 46°40' W 125°39'3 5.4
2018-Apr-09 21:22N 46°41' W 125°43'512.8
2018-Apr-09 21:01N 46°43' W 125°49'815.9
2018-Apr-09 20:30N 46°46' W 125°60'816.0
2018-Apr-09 20:00N 46°49' W 126°11'  
Track history (hours):
 
Tides and Currents Weather Stations Pressure Air Temp Water Temp Dewpoint Dewpoint Depression Visibility Wind Speed Wind Dir Waves Ship Positions

Heijin

Last reported at 2018-Apr-13 13:50 UTC. Time now 2018-Apr-24 10:51 UTC.
Position N 49°16' W 126°43'.
Warning: this ship's position is 10 days out of date.

Length 180 m; beam 32.2 m.

Type: Cargo ship. MMSI: 353788000.

Date/timePositionNaut miles runAvg speedWind from/ knotsBaromVisibWave heightAir tempDewpointWater temp
2018-Apr-13 13:50N 49°16' W 126°43'514.8
2018-Apr-13 13:30N 49°14' W 126°37'815.4
2018-Apr-13 12:59N 49°09' W 126°27'714.7
2018-Apr-13 12:30N 49°05' W 126°18'714.9
2018-Apr-13 12:00N 49°01' W 126°09'815.2
2018-Apr-13 11:30N 48°56' W 125°60'714.2
2018-Apr-13 11:00N 48°52' W 125°51'714.3
2018-Apr-13 10:30N 48°48' W 125°42'714.2
2018-Apr-13 10:00N 48°45' W 125°33'714.5
2018-Apr-13 09:30N 48°41' W 125°23'714.7
2018-Apr-13 09:00N 48°37' W 125°13'714.8
2018-Apr-13 08:30N 48°34' W 125°04'714.4
2018-Apr-13 08:00N 48°32' W 124°53'714.0
2018-Apr-13 07:30N 48°31' W 124°43'713.9
2018-Apr-13 07:00N 48°28' W 124°33'714.5
2018-Apr-13 06:30N 48°25' W 124°23'815.6
2018-Apr-13 06:00N 48°22' W 124°12'816.4
2018-Apr-13 05:30N 48°19' W 124°01'2315.0
2018-Apr-13 03:59N 48°20' W 123°27'510.5
2018-Apr-13 03:30N 48°23' W 123°21'612.0
2018-Apr-13 03:01N 48°25' W 123°13'713.5
2018-Apr-13 02:31N 48°32' W 123°13'714.9
2018-Apr-13 02:00N 48°39' W 123°15'816.0
2018-Apr-13 01:30N 48°45' W 123°07'612.9
2018-Apr-13 01:00N 48°51' W 123°04'917.5
2018-Apr-13 00:30N 48°58' W 123°13'714.4
2018-Apr-12 23:59N 49°03' W 123°21'5 9.6
2018-Apr-12 23:31N 49°07' W 123°17'510.6
2018-Apr-12 23:00N 49°06' W 123°08'510.3
2018-Apr-12 22:30N 49°09' W 123°02'4 8.9
2018-Apr-12 22:01N 49°11' W 122°55'0 0.7
2018-Apr-12 21:28N 49°11' W 122°55'0 0.0
2018-Apr-12 20:58N 49°11' W 122°55'0 0.0
2018-Apr-12 20:28N 49°11' W 122°55'0 0.0
2018-Apr-12 19:58N 49°11' W 122°55'0 0.0
2018-Apr-12 19:28N 49°11' W 122°55'0 0.0
2018-Apr-12 18:55N 49°11' W 122°55'0 0.0
2018-Apr-12 18:28N 49°11' W 122°55'0 0.0
2018-Apr-12 17:58N 49°11' W 122°55'0 0.0
2018-Apr-12 17:28N 49°11' W 122°55'0 0.0
2018-Apr-12 16:58N 49°11' W 122°55'0 0.0
2018-Apr-12 16:25N 49°11' W 122°55'0 0.0
2018-Apr-12 15:58N 49°11' W 122°55'0 0.0
2018-Apr-12 15:28N 49°11' W 122°55'0 0.0
2018-Apr-12 14:58N 49°11' W 122°55'0 0.0
2018-Apr-12 14:28N 49°11' W 122°55'0 0.0
2018-Apr-12 13:58N 49°11' W 122°55'0 0.0
2018-Apr-12 13:28N 49°11' W 122°55'0 0.0
2018-Apr-12 12:58N 49°11' W 122°55'0 0.0
2018-Apr-12 12:28N 49°11' W 122°55'0 0.0
2018-Apr-12 11:58N 49°11' W 122°55'0 0.0
2018-Apr-12 11:28N 49°11' W 122°55'0 0.0
2018-Apr-12 10:58N 49°11' W 122°55'0 0.0
2018-Apr-12 10:25N 49°11' W 122°55'0 0.0
2018-Apr-12 09:58N 49°11' W 122°55'0 0.0
2018-Apr-12 09:28N 49°11' W 122°55'0 0.0
2018-Apr-12 09:00N 49°11' W 122°55'1 2.5
2018-Apr-12 08:30N 49°10' W 122°56'510.4
2018-Apr-12 08:00N 49°08' W 123°03'510.1
2018-Apr-12 07:30N 49°07' W 123°11'510.0
2018-Apr-12 07:00N 49°06' W 123°18'3 6.7
2018-Apr-12 06:30N 49°03' W 123°18'511.0
2018-Apr-12 06:01N 48°59' W 123°12'816.4
2018-Apr-12 05:31N 48°53' W 123°04'714.2
2018-Apr-12 05:01N 48°46' W 123°04'916.7
2018-Apr-12 04:29N 48°41' W 123°15'816.5
2018-Apr-12 04:00N 48°34' W 123°12'815.9
2018-Apr-12 03:31N 48°26' W 123°10'714.0
2018-Apr-12 03:00N 48°22' W 123°19'6 9.9
2018-Apr-12 02:25N 48°18' W 123°25'20 8.5
2018-Apr-12 00:01N 48°14' W 123°55'015.2
2018-Apr-12 00:00N 48°14' W 123°55'713.0
2018-Apr-11 23:30N 48°16' W 124°05'613.1
2018-Apr-11 23:00N 48°19' W 124°13'713.2
2018-Apr-11 22:31N 48°22' W 124°22'715.0
2018-Apr-11 22:01N 48°25' W 124°32'917.4
2018-Apr-11 21:31N 48°28' W 124°44'916.9
2018-Apr-11 20:58N 48°28' W 124°58'816.2
2018-Apr-11 20:30N 48°22' W 125°04'816.8
2018-Apr-11 20:01N 48°14' W 125°07'816.0
2018-Apr-11 19:29N 48°06' W 125°03'6315.1
2018-Apr-11 15:18N 47°04' W 124°42'413.4
2018-Apr-11 15:00N 47°00' W 124°41'713.3
2018-Apr-11 14:30N 46°54' W 124°40'713.2
2018-Apr-11 14:01N 46°47' W 124°37'713.2
2018-Apr-11 13:30N 46°41' W 124°36'713.0
2018-Apr-11 13:00N 46°34' W 124°33'611.6
2018-Apr-11 12:30N 46°30' W 124°28'611.6
2018-Apr-11 12:00N 46°25' W 124°24'611.5
2018-Apr-11 11:30N 46°20' W 124°19'611.5
2018-Apr-11 11:00N 46°15' W 124°14'510.4
2018-Apr-11 10:30N 46°12' W 124°09'3 5.1
2018-Apr-11 10:00N 46°14' W 124°07'612.0
2018-Apr-11 09:30N 46°14' W 123°58'612.4
2018-Apr-11 09:00N 46°12' W 123°50'611.8
2018-Apr-11 08:31N 46°15' W 123°42'714.7
2018-Apr-11 08:00N 46°16' W 123°32'611.1
2018-Apr-11 07:30N 46°12' W 123°26'510.4
2018-Apr-11 07:00N 46°09' W 123°20'714.4
2018-Apr-11 06:30N 46°11' W 123°10'714.5
2018-Apr-11 06:00N 46°08' W 123°01'611.2
2018-Apr-11 05:31N 46°05' W 122°54'510.8
2018-Apr-11 05:00N 46°00' W 122°51'612.5
2018-Apr-11 04:30N 45°54' W 122°48'713.8
2018-Apr-11 04:01N 45°47' W 122°47'714.3
2018-Apr-11 03:30N 45°40' W 122°46'4 8.2
2018-Apr-11 03:00N 45°36' W 122°47'0 0.8
2018-Apr-11 02:30N 45°36' W 122°47'0 0.0
2018-Apr-11 02:00N 45°36' W 122°47'0 0.0
2018-Apr-11 01:24N 45°36' W 122°47'0 0.0
2018-Apr-11 00:45N 45°36' W 122°47'0 0.0
2018-Apr-11 00:30N 45°36' W 122°47'0 0.0
2018-Apr-11 00:00N 45°36' W 122°47'0 0.0
2018-Apr-10 23:30N 45°36' W 122°47'0 0.0
2018-Apr-10 23:00N 45°36' W 122°47'0 0.0
2018-Apr-10 22:27N 45°36' W 122°47'0 0.0
2018-Apr-10 22:00N 45°36' W 122°47'0 0.0
2018-Apr-10 21:27N 45°36' W 122°47'0 0.0
2018-Apr-10 21:00N 45°36' W 122°47'0 0.0
2018-Apr-10 20:30N 45°36' W 122°47'0 0.0
2018-Apr-10 20:00N 45°36' W 122°47'0 0.0
2018-Apr-10 18:54N 45°36' W 122°47'0 0.0
2018-Apr-10 18:03N 45°36' W 122°47'0 0.0
2018-Apr-10 17:54N 45°36' W 122°47'0 0.0
2018-Apr-10 17:24N 45°36' W 122°47'0 0.0
2018-Apr-10 17:00N 45°36' W 122°47'0 0.0
2018-Apr-10 16:24N 45°36' W 122°47'0 0.0
2018-Apr-10 16:00N 45°36' W 122°47'0 0.0
2018-Apr-10 15:30N 45°36' W 122°47'0 0.0
2018-Apr-10 14:54N 45°36' W 122°47'0 0.0
2018-Apr-10 14:30N 45°36' W 122°47'1 2.4
2018-Apr-10 14:01N 45°37' W 122°47'3 6.5
2018-Apr-10 13:31N 45°40' W 122°46'510.2
2018-Apr-10 13:00N 45°45' W 122°46'510.4
2018-Apr-10 12:30N 45°50' W 122°47'610.3
2018-Apr-10 11:58N 45°56' W 122°48'510.2
2018-Apr-10 11:30N 46°00' W 122°51'5 9.2
2018-Apr-10 11:00N 46°04' W 122°53'5 9.3
2018-Apr-10 10:31N 46°07' W 122°59'711.1
2018-Apr-10 09:55N 46°11' W 123°07'410.6
2018-Apr-10 09:30N 46°10' W 123°13'611.1
2018-Apr-10 09:01N 46°09' W 123°20'5 9.7
2018-Apr-10 08:30N 46°12' W 123°26'5 9.9
2018-Apr-10 08:00N 46°16' W 123°29'510.2
2018-Apr-10 07:31N 46°15' W 123°36'510.0
2018-Apr-10 07:00N 46°14' W 123°43'5 9.3
2018-Apr-10 06:31N 46°12' W 123°49'4 8.0
2018-Apr-10 06:01N 46°11' W 123°54'510.6
2018-Apr-10 05:30N 46°15' W 124°00'5 9.8
2018-Apr-10 04:57N 46°14' W 124°08'4 9.4
2018-Apr-10 04:30N 46°13' W 124°14'3 4.4
2018-Apr-10 03:54N 46°13' W 124°17'1 3.7
2018-Apr-10 03:30N 46°14' W 124°19'2 4.0
2018-Apr-10 03:00N 46°14' W 124°22'2 4.3
2018-Apr-10 02:30N 46°16' W 124°25'510.6
2018-Apr-10 02:00N 46°19' W 124°31'611.5
2018-Apr-10 01:30N 46°21' W 124°38'611.5
2018-Apr-10 01:00N 46°24' W 124°46'611.3
2018-Apr-10 00:30N 46°26' W 124°54'612.2
2018-Apr-10 00:00N 46°28' W 125°02'612.0
2018-Apr-09 23:30N 46°31' W 125°10'611.9
2018-Apr-09 23:00N 46°33' W 125°18'612.0
2018-Apr-09 22:30N 46°35' W 125°25'1019.7
2018-Apr-09 22:00N 46°40' W 125°39'3 5.4
2018-Apr-09 21:22N 46°41' W 125°43'512.8
2018-Apr-09 21:01N 46°43' W 125°49'815.9
2018-Apr-09 20:30N 46°46' W 125°60'816.0
2018-Apr-09 20:00N 46°49' W 126°11'  

Dump ship's entire track history